createdAt,value
2022-11-16T00:02:13.842Z,97070.00
2022-11-16T00:04:40.817Z,97066.53
2022-11-16T00:07:07.737Z,97073.47
2022-11-16T00:09:34.417Z,97067.41
2022-11-16T00:12:04.351Z,97072.63
2022-11-16T00:14:33.697Z,97064.81
2022-11-16T00:17:01.425Z,97052.59
2022-11-16T00:19:29.277Z,97045.72
2022-11-16T00:21:56.048Z,97041.41
2022-11-16T00:24:23.960Z,97054.56
2022-11-16T00:26:52.957Z,97049.47
2022-11-16T00:29:22.734Z,97048.50
2022-11-16T00:31:50.246Z,97047.59
2022-11-16T00:34:17.028Z,97048.38
2022-11-16T00:36:44.440Z,97051.63
2022-11-16T00:39:15.637Z,97042.09
2022-11-16T00:41:42.747Z,97036.16
2022-11-16T00:44:10.465Z,97039.66
2022-11-16T00:46:37.215Z,97036.22
2022-11-16T00:49:05.616Z,97041.47
2022-11-16T00:51:33.444Z,97031.88
2022-11-16T00:54:00.274Z,97032.69
2022-11-16T00:56:26.862Z,97030.94
2022-11-16T00:58:53.495Z,97025.84
2022-11-16T01:01:20.150Z,97023.31
2022-11-16T01:03:47.862Z,97022.50
2022-11-16T01:06:15.667Z,97020.75
2022-11-16T01:08:43.927Z,97021.69
2022-11-16T01:11:32.514Z,97016.47
2022-11-16T01:13:59.151Z,97013.06
2022-11-16T01:16:25.784Z,97009.63
2022-11-16T01:18:54.335Z,97001.00
2022-11-16T01:21:22.553Z,97007.06
2022-11-16T01:23:49.345Z,96997.69
2022-11-16T01:26:16.118Z,97002.03
2022-11-16T01:28:42.924Z,96991.72
2022-11-16T01:31:11.087Z,96989.06
2022-11-16T01:33:37.945Z,96988.28
2022-11-16T01:36:14.688Z,96986.41
2022-11-16T01:38:46.391Z,96982.94
2022-11-16T01:41:20.300Z,96976.06
2022-11-16T01:43:59.498Z,96981.16
2022-11-16T01:46:27.085Z,96974.19
2022-11-16T01:49:07.091Z,96983.63
2022-11-16T01:51:34.801Z,96976.78
2022-11-16T01:54:05.916Z,96983.56
2022-11-16T01:56:36.007Z,96982.69
2022-11-16T01:59:03.212Z,96978.38
2022-11-16T02:01:29.812Z,96980.31
2022-11-16T02:03:56.581Z,96973.28
2022-11-16T02:06:26.157Z,96972.31
2022-11-16T02:09:17.698Z,96973.34
2022-11-16T02:11:50.404Z,96960.31
2022-11-16T02:14:45.975Z,96963.88
2022-11-16T02:17:43.331Z,96955.16
2022-11-16T02:20:31.671Z,96957.09
2022-11-16T02:23:23.046Z,96951.97
2022-11-16T02:26:04.757Z,96940.75
2022-11-16T02:28:54.541Z,96942.47
2022-11-16T02:31:27.426Z,96928.69
2022-11-16T02:33:57.025Z,96925.38
2022-11-16T02:36:25.122Z,96910.59
2022-11-16T02:38:58.291Z,96903.69
2022-11-16T02:41:31.450Z,96900.09
2022-11-16T02:44:05.786Z,96901.91
2022-11-16T02:46:37.944Z,96904.50
2022-11-16T02:49:11.169Z,96895.84
2022-11-16T02:51:40.076Z,96892.38
2022-11-16T02:54:21.195Z,96887.16
2022-11-16T02:56:53.530Z,96890.63
2022-11-16T02:59:21.255Z,96895.13
2022-11-16T03:02:18.563Z,96894.38
2022-11-16T03:04:52.280Z,96889.91
2022-11-16T03:07:25.844Z,96895.91
2022-11-16T03:09:55.704Z,96884.59
2022-11-16T03:12:27.125Z,96890.63
2022-11-16T03:14:57.720Z,96889.72
2022-11-16T03:17:54.372Z,96893.16
2022-11-16T03:20:27.992Z,96889.78
2022-11-16T03:22:59.197Z,96888.22
2022-11-16T03:25:31.730Z,96898.50
2022-11-16T03:28:13.609Z,96895.91
2022-11-16T03:30:51.464Z,96884.75
2022-11-16T03:33:30.704Z,96879.63
2022-11-16T03:36:01.644Z,96876.91
2022-11-16T03:38:29.025Z,96860.56
2022-11-16T03:41:00.354Z,96870.13
2022-11-16T03:43:28.419Z,96862.25
2022-11-16T03:45:55.521Z,96849.19
2022-11-16T03:48:22.169Z,96853.53
2022-11-16T03:50:49.564Z,96856.84
2022-11-16T03:53:16.128Z,96857.84
2022-11-16T03:55:48.474Z,96860.59
2022-11-16T03:58:18.726Z,96863.09
2022-11-16T04:00:45.782Z,96864.91
2022-11-16T04:03:12.463Z,96861.47
2022-11-16T04:05:57.734Z,96857.09
2022-11-16T04:08:43.134Z,96837.06
2022-11-16T04:11:32.048Z,96830.97
2022-11-16T04:14:17.186Z,96824.78
2022-11-16T04:17:02.764Z,96823.09
2022-11-16T04:19:48.201Z,96830.66
2022-11-16T04:22:42.622Z,96835.84
2022-11-16T04:25:14.286Z,96836.75
2022-11-16T04:27:59.665Z,96829.94
2022-11-16T04:30:46.626Z,96818.72
2022-11-16T04:33:31.821Z,96827.31
2022-11-16T04:36:20.602Z,96821.06
2022-11-16T04:38:47.497Z,96807.03
2022-11-16T04:41:35.876Z,96807.88
2022-11-16T04:44:02.453Z,96810.34
2022-11-16T04:46:47.383Z,96798.09
2022-11-16T04:49:14.027Z,96792.03
2022-11-16T04:51:40.629Z,96797.19
2022-11-16T04:54:07.187Z,96797.97
2022-11-16T04:56:33.832Z,96800.59
2022-11-16T04:59:00.503Z,96790.22
2022-11-16T05:01:45.886Z,96778.78
2022-11-16T05:04:12.526Z,96780.59
2022-11-16T05:06:39.157Z,96780.75
2022-11-16T05:09:05.891Z,96778.31
2022-11-16T05:11:32.532Z,96781.78
2022-11-16T05:13:59.276Z,96779.97
2022-11-16T05:16:25.972Z,96775.66
2022-11-16T05:19:11.316Z,96771.16
2022-11-16T05:21:37.968Z,96771.94
2022-11-16T05:24:23.499Z,96776.22
2022-11-16T05:26:50.092Z,96771.03
2022-11-16T05:29:16.698Z,96770.09
2022-11-16T05:31:43.221Z,96763.16
2022-11-16T05:34:10.248Z,96766.53
2022-11-16T05:36:37.189Z,96763.75
2022-11-16T05:39:04.631Z,96760.13
2022-11-16T05:41:31.333Z,96751.34
2022-11-16T05:43:58.102Z,96754.00
2022-11-16T05:46:25.322Z,96753.16
2022-11-16T05:48:51.908Z,96766.16
2022-11-16T05:51:18.563Z,96762.66
2022-11-16T05:53:45.234Z,96764.34
2022-11-16T05:56:14.419Z,96766.78
2022-11-16T05:58:41.938Z,96767.56
2022-11-16T06:01:08.714Z,96762.22
2022-11-16T06:03:36.462Z,96765.69
2022-11-16T06:06:05.194Z,96761.16
2022-11-16T06:08:32.296Z,96764.50
2022-11-16T06:11:07.691Z,96756.78
2022-11-16T06:13:34.500Z,96752.28
2022-11-16T06:16:02.453Z,96757.41
2022-11-16T06:18:29.649Z,96762.47
2022-11-16T06:20:56.391Z,96762.47
2022-11-16T06:23:23.318Z,96755.66
2022-11-16T06:25:55.136Z,96746.81
2022-11-16T06:28:22.552Z,96741.53
2022-11-16T06:30:49.785Z,96734.63
2022-11-16T06:33:17.239Z,96733.72
2022-11-16T06:35:44.543Z,96730.34
2022-11-16T06:38:13.762Z,96738.19
2022-11-16T06:40:40.349Z,96734.09
2022-11-16T06:43:06.997Z,96733.09
2022-11-16T06:45:33.625Z,96736.47
2022-11-16T06:48:00.299Z,96735.78
2022-11-16T06:50:27.000Z,96734.00
2022-11-16T06:52:54.131Z,96724.47
2022-11-16T06:55:20.861Z,96728.50
2022-11-16T06:57:48.739Z,96722.84
2022-11-16T07:00:16.001Z,96719.28
2022-11-16T07:02:42.547Z,96707.66
2022-11-16T07:05:09.348Z,96724.09
2022-11-16T07:07:36.246Z,96731.31
2022-11-16T07:10:03.799Z,96726.13
2022-11-16T07:12:30.490Z,96723.16
2022-11-16T07:14:57.066Z,96730.44
2022-11-16T07:17:23.755Z,96733.78
2022-11-16T07:19:50.328Z,96729.66
2022-11-16T07:22:16.944Z,96740.88
2022-11-16T07:24:43.659Z,96735.38
2022-11-16T07:27:10.327Z,96741.28
2022-11-16T07:29:37.035Z,96740.34
2022-11-16T07:32:03.739Z,96735.88
2022-11-16T07:34:30.356Z,96747.94
2022-11-16T07:36:57.091Z,96744.47
2022-11-16T07:39:23.714Z,96744.25
2022-11-16T07:41:53.140Z,96742.31
2022-11-16T07:44:20.776Z,96729.78
2022-11-16T07:46:48.421Z,96727.84
2022-11-16T07:49:17.128Z,96725.22
2022-11-16T07:51:44.390Z,96723.56
2022-11-16T07:54:12.929Z,96728.63
2022-11-16T07:56:39.559Z,96720.84
2022-11-16T07:59:06.602Z,96720.00
2022-11-16T08:01:35.775Z,96716.09
2022-11-16T08:04:02.813Z,96702.31
2022-11-16T08:06:31.613Z,96688.59
2022-11-16T08:08:59.130Z,96687.56
2022-11-16T08:11:26.562Z,96685.84
2022-11-16T08:13:53.397Z,96693.69
2022-11-16T08:16:22.351Z,96699.84
2022-11-16T08:18:49.426Z,96706.00
2022-11-16T08:21:18.814Z,96708.59
2022-11-16T08:23:46.033Z,96691.84
2022-11-16T08:26:18.289Z,96692.00
2022-11-16T08:28:46.792Z,96691.25
2022-11-16T08:31:24.829Z,96679.13
2022-11-16T08:33:52.361Z,96681.66
2022-11-16T08:36:19.642Z,96687.91
2022-11-16T08:38:48.233Z,96687.25
2022-11-16T08:41:16.005Z,96668.16
2022-11-16T08:43:44.545Z,96667.97
2022-11-16T08:46:11.684Z,96666.72
2022-11-16T08:48:38.307Z,96669.00
2022-11-16T08:51:22.247Z,96678.88
2022-11-16T08:53:50.056Z,96676.31
2022-11-16T08:56:18.502Z,96675.28
2022-11-16T08:58:47.373Z,96668.84
2022-11-16T09:01:16.994Z,96675.44
2022-11-16T09:03:44.419Z,96663.97
2022-11-16T09:06:12.021Z,96675.44
2022-11-16T09:08:40.684Z,96684.59
2022-11-16T09:11:09.487Z,96691.41
2022-11-16T09:13:36.631Z,96696.53
2022-11-16T09:16:04.820Z,96674.81
2022-11-16T09:18:32.261Z,96671.25
2022-11-16T09:20:59.553Z,96667.72
2022-11-16T09:23:26.138Z,96664.16
2022-11-16T09:25:54.602Z,96657.19
2022-11-16T09:28:22.278Z,96666.56
2022-11-16T09:30:51.276Z,96673.34
2022-11-16T09:33:17.922Z,96668.25
2022-11-16T09:35:44.748Z,96669.09
2022-11-16T09:38:16.004Z,96672.66
2022-11-16T09:40:47.514Z,96661.53
2022-11-16T09:43:14.081Z,96655.28
2022-11-16T09:45:56.417Z,96655.16
2022-11-16T09:48:24.249Z,96650.84
2022-11-16T09:50:57.635Z,96638.50
2022-11-16T09:53:33.130Z,96629.63
2022-11-16T09:56:04.936Z,96617.19
2022-11-16T09:58:42.112Z,96611.22
2022-11-16T10:01:28.600Z,96611.78
2022-11-16T10:04:23.571Z,96615.88
2022-11-16T10:06:58.679Z,96605.19
2022-11-16T10:09:25.932Z,96617.13
2022-11-16T10:12:01.744Z,96617.94
2022-11-16T10:14:46.298Z,96621.09
2022-11-16T10:17:51.216Z,96611.97
2022-11-16T10:20:42.656Z,96601.22
2022-11-16T10:23:20.132Z,96609.78
2022-11-16T10:25:53.419Z,96602.97
2022-11-16T10:28:41.574Z,96601.22
2022-11-16T10:31:36.481Z,96605.06
2022-11-16T10:34:08.274Z,96587.91
2022-11-16T10:36:37.672Z,96589.78
2022-11-16T10:39:15.077Z,96577.38
2022-11-16T10:41:49.870Z,96582.91
2022-11-16T10:44:43.989Z,96578.06
2022-11-16T10:47:35.406Z,96577.63
2022-11-16T10:50:26.187Z,96573.91
2022-11-16T10:52:52.928Z,96576.72
2022-11-16T10:55:22.109Z,96569.41
2022-11-16T10:57:57.975Z,96568.56
2022-11-16T11:00:52.621Z,96556.09
2022-11-16T11:03:32.429Z,96556.38
2022-11-16T11:05:59.798Z,96549.50
2022-11-16T11:08:30.858Z,96552.97
2022-11-16T11:11:25.441Z,96550.00
2022-11-16T11:14:14.198Z,96546.81
2022-11-16T11:16:41.586Z,96538.56
2022-11-16T11:19:19.911Z,96545.69
2022-11-16T11:21:47.518Z,96543.28
2022-11-16T11:24:43.438Z,96541.31
2022-11-16T11:27:04.665Z,96538.16
2022-11-16T11:29:37.243Z,96537.00
2022-11-16T11:32:13.604Z,96536.31
2022-11-16T11:34:44.155Z,96536.78
2022-11-16T11:37:22.330Z,96533.69
2022-11-16T11:39:50.377Z,96530.72
2022-11-16T11:42:16.922Z,96525.81
2022-11-16T11:44:50.497Z,96526.41
2022-11-16T11:47:56.768Z,96535.84
2022-11-16T11:50:36.664Z,96522.00
2022-11-16T11:53:11.739Z,96528.69
2022-11-16T11:55:39.700Z,96528.19
2022-11-16T11:58:11.184Z,96524.97
2022-11-16T12:01:23.805Z,96516.06
2022-11-16T12:04:26.013Z,96516.16
2022-11-16T12:07:05.212Z,96517.75
2022-11-16T12:09:50.596Z,96515.88
2022-11-16T12:12:41.798Z,96514.91
2022-11-16T12:15:29.839Z,96511.94
2022-11-16T12:18:20.895Z,96509.09
2022-11-16T12:20:51.919Z,96514.03
2022-11-16T12:23:30.041Z,96505.22
2022-11-16T12:26:05.544Z,96512.38
2022-11-16T12:28:56.242Z,96502.53
2022-11-16T12:31:33.242Z,96500.59
2022-11-16T12:34:18.431Z,96499.19
2022-11-16T12:36:54.946Z,96500.22
2022-11-16T12:39:28.709Z,96499.13
2022-11-16T12:42:09.420Z,96504.28
2022-11-16T12:44:51.262Z,96498.78
2022-11-16T12:47:35.781Z,96493.94
2022-11-16T12:50:50.494Z,96494.75
2022-11-16T12:53:19.820Z,96492.31
2022-11-16T12:56:04.380Z,96480.19
2022-11-16T12:59:05.273Z,96480.19
2022-11-16T13:02:06.929Z,96482.88
2022-11-16T13:04:51.972Z,96480.41
2022-11-16T13:07:27.449Z,96475.88
2022-11-16T13:10:02.982Z,96482.38
2022-11-16T13:12:30.972Z,96478.06
2022-11-16T13:15:01.956Z,96475.72
2022-11-16T13:17:37.693Z,96472.41
2022-11-16T13:20:22.150Z,96474.88
2022-11-16T13:23:15.577Z,96465.31
2022-11-16T13:25:55.319Z,96465.75
2022-11-16T13:28:46.602Z,96467.53
2022-11-16T13:31:30.032Z,96473.66
2022-11-16T13:34:13.114Z,96461.63
2022-11-16T13:36:45.147Z,96469.44
2022-11-16T13:39:22.664Z,96463.13
2022-11-16T13:41:59.775Z,96456.25
2022-11-16T13:44:29.055Z,96456.25
2022-11-16T13:47:04.652Z,96451.97
2022-11-16T13:49:34.504Z,96452.06
2022-11-16T13:52:54.062Z,96451.38
2022-11-16T13:55:31.127Z,96454.94
2022-11-16T13:58:00.378Z,96452.91
2022-11-16T14:00:37.886Z,96448.31
2022-11-16T14:03:10.398Z,96453.19
2022-11-16T14:05:42.441Z,96450.56
2022-11-16T14:08:24.206Z,96438.06
2022-11-16T14:10:50.875Z,96431.69
2022-11-16T14:13:40.332Z,96430.56
2022-11-16T14:16:22.865Z,96427.94
2022-11-16T14:19:00.964Z,96426.84
2022-11-16T14:21:55.651Z,96415.41
2022-11-16T14:24:40.645Z,96417.34
2022-11-16T14:27:16.130Z,96426.16
2022-11-16T14:30:08.080Z,96425.75
2022-11-16T14:32:42.516Z,96422.97
2022-11-16T14:35:42.061Z,96419.28
2022-11-16T14:38:26.902Z,96415.56
2022-11-16T14:40:59.348Z,96412.88
2022-11-16T14:43:44.624Z,96410.72
2022-11-16T14:46:23.542Z,96407.84
2022-11-16T14:48:50.653Z,96404.31
2022-11-16T14:51:33.025Z,96405.38
2022-11-16T14:54:04.436Z,96405.22
2022-11-16T14:56:31.447Z,96409.72
2022-11-16T14:59:02.272Z,96400.75
2022-11-16T15:01:33.182Z,96403.38
2022-11-16T15:04:04.435Z,96407.69
2022-11-16T15:06:42.244Z,96396.34
2022-11-16T15:09:16.917Z,96394.72
2022-11-16T15:12:06.707Z,96388.72
2022-11-16T15:14:37.365Z,96391.56
2022-11-16T15:17:07.281Z,96391.66
2022-11-16T15:19:34.084Z,96391.69
2022-11-16T15:22:02.652Z,96397.59
2022-11-16T15:24:34.065Z,96399.22
2022-11-16T15:27:06.891Z,96399.38
2022-11-16T15:29:33.581Z,96399.38
2022-11-16T15:32:00.259Z,96386.31
2022-11-16T15:34:26.911Z,96394.13
2022-11-16T15:36:55.715Z,96383.63
2022-11-16T15:39:27.632Z,96389.16
2022-11-16T15:42:00.428Z,96385.69
2022-11-16T15:44:31.390Z,96394.97
2022-11-16T15:46:58.898Z,96400.31
2022-11-16T15:49:33.616Z,96389.88
2022-11-16T15:52:01.069Z,96393.34
2022-11-16T15:54:30.324Z,96394.28
2022-11-16T15:57:08.095Z,96392.56
2022-11-16T15:59:36.810Z,96381.75
2022-11-16T16:02:04.379Z,96378.59
2022-11-16T16:04:31.352Z,96382.09
2022-11-16T16:07:00.157Z,96378.38
2022-11-16T16:09:34.719Z,96382.47
2022-11-16T16:12:18.872Z,96377.44
2022-11-16T16:14:46.571Z,96382.53
2022-11-16T16:17:25.720Z,96379.69
2022-11-16T16:19:58.403Z,96371.06
2022-11-16T16:22:28.142Z,96371.13
2022-11-16T16:24:54.989Z,96369.56
2022-11-16T16:27:24.167Z,96368.66
2022-11-16T16:29:53.609Z,96366.72
2022-11-16T16:32:31.552Z,96372.50
2022-11-16T16:35:00.717Z,96370.81
2022-11-16T16:37:30.664Z,96367.44
2022-11-16T16:39:58.203Z,96361.47
2022-11-16T16:42:25.162Z,96358.63
2022-11-16T16:44:51.831Z,96360.03
2022-11-16T16:47:22.027Z,96358.41
2022-11-16T16:49:49.512Z,96348.75
2022-11-16T16:52:16.673Z,96337.19
2022-11-16T16:54:43.563Z,96336.31
2022-11-16T16:57:14.968Z,96327.75
2022-11-16T16:59:42.397Z,96311.56
2022-11-16T17:02:13.103Z,96310.88
2022-11-16T17:04:39.980Z,96318.19
2022-11-16T17:07:06.650Z,96314.56
2022-11-16T17:09:35.491Z,96311.31
2022-11-16T17:12:02.222Z,96313.50
2022-11-16T17:14:28.802Z,96306.78
2022-11-16T17:16:55.626Z,96305.47
2022-11-16T17:19:22.271Z,96298.44
2022-11-16T17:21:50.769Z,96302.16
2022-11-16T17:24:17.467Z,96299.75
2022-11-16T17:26:48.312Z,96310.38
2022-11-16T17:29:15.444Z,96308.63
2022-11-16T17:31:44.171Z,96301.38
2022-11-16T17:34:13.805Z,96311.56
2022-11-16T17:36:41.496Z,96313.78
2022-11-16T17:39:08.273Z,96311.16
2022-11-16T17:41:35.009Z,96311.97
2022-11-16T17:44:01.615Z,96308.41
2022-11-16T17:46:29.077Z,96315.44
2022-11-16T17:48:56.091Z,96312.16
2022-11-16T17:51:24.947Z,96307.75
2022-11-16T17:53:52.136Z,96310.38
2022-11-16T17:56:21.265Z,96306.06
2022-11-16T17:58:50.164Z,96299.19
2022-11-16T18:01:17.136Z,96300.28
2022-11-16T18:03:44.020Z,96297.13
2022-11-16T18:06:16.999Z,96295.28
2022-11-16T18:08:44.166Z,96289.25
2022-11-16T18:11:10.964Z,96291.03
2022-11-16T18:13:38.183Z,96293.81
2022-11-16T18:16:11.309Z,96284.09
2022-11-16T18:18:39.120Z,96288.09
2022-11-16T18:21:07.362Z,96293.91
2022-11-16T18:23:35.717Z,96287.97
2022-11-16T18:26:08.338Z,96288.34
2022-11-16T18:28:35.342Z,96280.47
2022-11-16T18:31:04.038Z,96280.53
2022-11-16T18:33:36.174Z,96284.09
2022-11-16T18:36:05.044Z,96280.94
2022-11-16T18:38:35.001Z,96280.78
2022-11-16T18:41:13.858Z,96283.78
2022-11-16T18:43:42.539Z,96286.41
2022-11-16T18:46:09.228Z,96287.41
2022-11-16T18:48:36.268Z,96285.53
2022-11-16T18:51:04.824Z,96287.16
2022-11-16T18:53:36.484Z,96284.50
2022-11-16T18:56:03.461Z,96287.03
2022-11-16T19:01:21.350Z,96278.16
2022-11-16T19:03:48.327Z,96278.22
2022-11-16T19:06:17.296Z,96275.69
2022-11-16T19:08:47.808Z,96265.81
2022-11-16T19:11:21.414Z,96268.28
2022-11-16T19:13:56.294Z,96263.66
2022-11-16T19:16:24.501Z,96269.75
2022-11-16T19:18:51.419Z,96265.66
2022-11-16T19:21:18.821Z,96265.06
2022-11-16T19:23:51.144Z,96261.19
2022-11-16T19:26:19.632Z,96269.75
2022-11-16T19:28:47.857Z,96259.31
2022-11-16T19:31:18.556Z,96241.06
2022-11-16T19:33:46.026Z,96242.06
2022-11-16T19:36:17.914Z,96234.28
2022-11-16T19:38:46.128Z,96239.28
2022-11-16T19:41:14.496Z,96246.53
2022-11-16T19:43:41.862Z,96238.03
2022-11-16T19:46:16.627Z,96232.66
2022-11-16T19:48:44.849Z,96228.41
2022-11-16T19:51:23.273Z,96231.34
2022-11-16T19:53:49.941Z,96230.78
2022-11-16T19:56:18.859Z,96221.34
2022-11-16T19:58:46.213Z,96222.00
2022-11-16T20:01:15.316Z,96213.34
2022-11-16T20:03:42.352Z,96214.00
2022-11-16T20:06:19.453Z,96216.91
2022-11-16T20:08:58.560Z,96218.00
2022-11-16T20:11:40.967Z,96223.25
2022-11-16T20:14:10.450Z,96212.75
2022-11-16T20:16:41.950Z,96215.22
2022-11-16T20:19:10.040Z,96210.69
2022-11-16T20:21:41.899Z,96204.75
2022-11-16T20:24:11.901Z,96208.50
2022-11-16T20:26:44.010Z,96210.50
2022-11-16T20:29:12.157Z,96202.78
2022-11-16T20:31:42.806Z,96205.97
2022-11-16T20:34:14.010Z,96201.34
2022-11-16T20:36:45.750Z,96199.50
2022-11-16T20:39:20.346Z,96199.72
2022-11-16T20:41:50.107Z,96205.97
2022-11-16T20:44:21.007Z,96205.97
2022-11-16T20:46:47.975Z,96205.19
2022-11-16T20:49:15.211Z,96199.13
2022-11-16T20:51:41.855Z,96197.28
2022-11-16T20:54:08.627Z,96179.91
2022-11-16T20:56:56.745Z,96179.34
2022-11-16T20:59:23.358Z,96174.00
2022-11-16T21:01:52.758Z,96166.31
2022-11-16T21:04:20.725Z,96163.78
2022-11-16T21:06:47.395Z,96165.56
2022-11-16T21:09:22.720Z,96161.06
2022-11-16T21:12:08.259Z,96159.38
2022-11-16T21:14:34.859Z,96156.75
2022-11-16T21:17:01.654Z,96161.06
2022-11-16T21:19:28.360Z,96148.84
2022-11-16T21:21:55.045Z,96143.41
2022-11-16T21:24:24.730Z,96147.81
2022-11-16T21:26:52.377Z,96151.34
2022-11-16T21:29:22.279Z,96152.13
2022-11-16T21:31:48.956Z,96153.38
2022-11-16T21:34:15.576Z,96147.22
2022-11-16T21:36:42.202Z,96143.75
2022-11-16T21:39:08.801Z,96149.44
2022-11-16T21:41:35.443Z,96153.06
2022-11-16T21:44:02.067Z,96149.97
2022-11-16T21:46:28.685Z,96149.44
2022-11-16T21:48:56.618Z,96154.53
2022-11-16T21:51:25.663Z,96147.59
2022-11-16T21:53:52.632Z,96143.28
2022-11-16T21:56:21.307Z,96135.19
2022-11-16T21:58:49.968Z,96131.88
2022-11-16T22:01:17.018Z,96135.72
2022-11-16T22:03:44.789Z,96128.38
2022-11-16T22:06:32.823Z,96126.94
2022-11-16T22:09:00.159Z,96129.97
2022-11-16T22:11:26.836Z,96128.25
2022-11-16T22:13:53.470Z,96123.00
2022-11-16T22:16:23.312Z,96124.25
2022-11-16T22:18:50.332Z,96123.50
2022-11-16T22:21:17.062Z,96114.59
2022-11-16T22:23:43.632Z,96101.59
2022-11-16T22:26:12.596Z,96101.34
2022-11-16T22:28:39.560Z,96105.06
2022-11-16T22:31:09.466Z,96102.44
2022-11-16T22:33:36.423Z,96100.13
2022-11-16T22:36:03.859Z,96100.63
2022-11-16T22:38:30.525Z,96094.44
2022-11-16T22:40:57.848Z,96101.31
2022-11-16T22:43:27.261Z,96098.34
2022-11-16T22:45:58.729Z,96084.34
2022-11-16T22:48:39.147Z,96088.75
2022-11-16T22:51:29.536Z,96087.13
2022-11-16T22:54:04.362Z,96084.34
2022-11-16T22:56:32.629Z,96080.00
2022-11-16T22:59:01.178Z,96078.28
2022-11-16T23:01:28.693Z,96067.78
2022-11-16T23:03:56.022Z,96073.03
2022-11-16T23:06:23.074Z,96070.41
2022-11-16T23:08:49.803Z,96056.38
2022-11-16T23:11:37.725Z,96056.28
2022-11-16T23:14:24.882Z,96043.19
2022-11-16T23:16:52.166Z,96040.72
2022-11-16T23:19:38.854Z,96037.34
2022-11-16T23:22:24.600Z,96032.94
2022-11-16T23:25:10.274Z,96035.72
2022-11-16T23:28:20.157Z,96030.34
2022-11-16T23:30:46.761Z,96019.69
2022-11-16T23:33:13.562Z,96023.25
2022-11-16T23:35:40.152Z,96022.47
2022-11-16T23:38:08.278Z,96013.78
2022-11-16T23:40:39.648Z,96012.94
2022-11-16T23:43:27.485Z,96020.63
2022-11-16T23:45:54.075Z,96015.41
2022-11-16T23:48:20.779Z,96010.84
2022-11-16T23:50:47.503Z,96007.53
2022-11-16T23:53:14.595Z,96021.31
2022-11-16T23:55:41.267Z,96013.63
2022-11-16T23:58:13.731Z,96010.91
